Time;durP1;ratioP1;P1;durP2;ratioP2;P2;SDS_P1;SDS_P2;PMS_P1;PMS_P2;Temp;Humidity;BMP_temperature;BMP_pressure;BME280_temperature;BME280_humidity;BME280_pressure;Samples;Min_cycle;Max_cycle;Signal;HPM_P1;HPM_P2
2022/09/29 00:02:24;;;;;;;62.20;58.03;;;;;;;;;;10222090;28;20042;-66
2022/09/29 00:07:21;;;;;;;63.75;59.45;;;;;;;;;;10235692;28;20061;-66
2022/09/29 00:12:17;;;;;;;60.03;56.03;;;;;;;;;;10231342;28;20054;-66
2022/09/29 00:17:14;;;;;;;64.28;60.13;;;;;;;;;;10224058;28;20125;-66
2022/09/29 00:22:10;;;;;;;64.32;60.05;;;;;;;;;;10228854;28;20052;-66
2022/09/29 00:27:06;;;;;;;63.35;59.05;;;;;;;;;;10230899;28;20511;-67
2022/09/29 00:32:02;;;;;;;59.13;55.17;;;;;;;;;;10225374;28;20052;-66
2022/09/29 00:36:59;;;;;;;65.13;60.88;;;;;;;;;;10231664;28;20046;-66
2022/09/29 00:41:56;;;;;;;59.97;55.75;;;;;;;;;;10235561;28;20418;-67
2022/09/29 00:47:00;;;;;;;57.40;53.42;;;;;;;;;;10233607;28;20053;-68
2022/09/29 00:52:17;;;;;;;60.92;56.88;;;;;;;;;;10218615;28;20054;-66
2022/09/29 00:57:15;;;;;;;59.72;55.53;;;;;;;;;;10232735;28;20423;-66
2022/09/29 01:02:12;;;;;;;61.47;57.20;;;;;;;;;;10222047;28;20403;-67
2022/09/29 01:07:09;;;;;;;58.53;54.60;;;;;;;;;;10238577;28;20056;-66
2022/09/29 01:12:06;;;;;;;62.78;58.78;;;;;;;;;;10239494;28;20044;-65
2022/09/29 01:17:02;;;;;;;60.83;56.92;;;;;;;;;;10234407;28;20049;-65
2022/09/29 01:22:12;;;;;;;64.95;60.95;;;;;;;;;;10228717;28;20042;-65
2022/09/29 01:27:20;;;;;;;65.45;61.03;;;;;;;;;;10226688;28;20050;-66
2022/09/29 01:32:22;;;;;;;63.08;58.88;;;;;;;;;;10223004;28;20053;-65
2022/09/29 01:37:23;;;;;;;60.90;56.88;;;;;;;;;;10233489;28;20080;-65
2022/09/29 01:42:22;;;;;;;61.47;57.58;;;;;;;;;;10232547;28;20041;-65
2022/09/29 01:47:21;;;;;;;63.03;58.63;;;;;;;;;;10225615;28;20061;-66
2022/09/29 01:52:20;;;;;;;61.75;57.95;;;;;;;;;;10224584;28;20038;-66
2022/09/29 01:57:20;;;;;;;62.72;58.85;;;;;;;;;;10225564;28;20045;-66
2022/09/29 02:02:24;;;;;;;58.65;54.83;;;;;;;;;;10226986;28;20052;-66
2022/09/29 02:07:26;;;;;;;59.00;54.78;;;;;;;;;;10221391;28;20045;-67
2022/09/29 02:12:24;;;;;;;59.63;55.88;;;;;;;;;;10225204;28;20053;-66
2022/09/29 02:17:28;;;;;;;58.03;54.13;;;;;;;;;;10227062;28;20542;-66
2022/09/29 02:22:25;;;;;;;57.15;53.33;;;;;;;;;;10214831;28;20053;-67
2022/09/29 02:27:21;;;;;;;60.05;54.80;;;;;;;;;;10226467;28;20045;-67
2022/09/29 02:32:18;;;;;;;58.30;54.67;;;;;;;;;;10222543;28;20042;-65
2022/09/29 02:37:23;;;;;;;59.03;55.30;;;;;;;;;;10228181;28;20652;-66
2022/09/29 02:42:26;;;;;;;61.08;57.28;;;;;;;;;;10223055;28;20057;-65
2022/09/29 02:47:41;;;;;;;56.53;53.05;;;;;;;;;;10231235;28;20742;-65
2022/09/29 02:52:38;;;;;;;60.13;56.35;;;;;;;;;;10230047;28;20057;-65
2022/09/29 02:57:42;;;;;;;64.57;60.53;;;;;;;;;;10230141;28;20507;-67
2022/09/29 03:02:39;;;;;;;59.70;56.03;;;;;;;;;;10232924;28;20052;-66
2022/09/29 03:07:36;;;;;;;58.05;54.55;;;;;;;;;;10223348;28;20422;-67
2022/09/29 03:12:32;;;;;;;60.25;56.47;;;;;;;;;;10245292;28;20053;-65
2022/09/29 03:17:29;;;;;;;58.92;55.22;;;;;;;;;;10223901;28;20056;-67
2022/09/29 03:22:25;;;;;;;58.08;54.22;;;;;;;;;;10234957;28;20416;-67
2022/09/29 03:27:22;;;;;;;61.05;57.10;;;;;;;;;;10230453;28;20228;-66
2022/09/29 03:32:18;;;;;;;58.88;54.90;;;;;;;;;;10231988;28;20054;-67
2022/09/29 03:37:15;;;;;;;59.65;55.95;;;;;;;;;;10232791;28;20049;-67
2022/09/29 03:42:11;;;;;;;58.70;55.17;;;;;;;;;;10228743;28;20530;-68
2022/09/29 03:47:07;;;;;;;59.72;55.92;;;;;;;;;;10227189;28;20065;-66
2022/09/29 03:52:03;;;;;;;58.97;55.33;;;;;;;;;;10233115;28;20147;-67
2022/09/29 03:57:00;;;;;;;61.53;57.67;;;;;;;;;;10239203;28;20690;-66
2022/09/29 04:01:56;;;;;;;56.47;53.10;;;;;;;;;;10225789;28;20049;-67
2022/09/29 04:06:53;;;;;;;62.97;58.88;;;;;;;;;;10227380;28;20057;-67
2022/09/29 04:11:49;;;;;;;59.78;56.08;;;;;;;;;;10218735;28;20057;-67
2022/09/29 04:16:45;;;;;;;60.70;56.97;;;;;;;;;;10236347;28;20078;-67
2022/09/29 04:21:42;;;;;;;64.90;60.42;;;;;;;;;;10239578;28;20042;-67
2022/09/29 04:26:39;;;;;;;65.72;61.67;;;;;;;;;;10216571;28;20534;-66
2022/09/29 04:31:35;;;;;;;67.95;63.55;;;;;;;;;;10228986;28;20099;-67
2022/09/29 04:36:32;;;;;;;66.60;62.50;;;;;;;;;;10234952;28;20465;-68
2022/09/29 04:41:32;;;;;;;70.20;65.90;;;;;;;;;;10239984;28;20099;-67
2022/09/29 04:46:28;;;;;;;70.72;66.40;;;;;;;;;;10226065;28;20503;-69
2022/09/29 04:51:25;;;;;;;72.75;67.85;;;;;;;;;;10219818;28;20046;-67
2022/09/29 04:56:21;;;;;;;72.03;67.70;;;;;;;;;;10212257;28;20698;-67
2022/09/29 05:01:17;;;;;;;79.57;74.45;;;;;;;;;;10217909;28;20060;-67
2022/09/29 05:06:13;;;;;;;77.10;72.32;;;;;;;;;;10216175;28;20053;-68
2022/09/29 05:11:10;;;;;;;81.63;76.63;;;;;;;;;;10205783;28;20048;-69
2022/09/29 05:16:06;;;;;;;80.30;75.50;;;;;;;;;;10228133;28;20434;-69
2022/09/29 05:21:07;;;;;;;82.80;77.65;;;;;;;;;;10231492;28;20045;-69
2022/09/29 05:26:23;;;;;;;82.47;77.07;;;;;;;;;;10233092;28;20056;-68
2022/09/29 05:31:19;;;;;;;88.45;82.38;;;;;;;;;;10240946;28;20064;-68
2022/09/29 05:36:15;;;;;;;88.10;82.93;;;;;;;;;;10242276;28;20106;-69
2022/09/29 05:41:12;;;;;;;91.15;85.40;;;;;;;;;;10233731;28;20061;-69
2022/09/29 05:46:09;;;;;;;92.15;86.55;;;;;;;;;;10240345;28;20056;-69
2022/09/29 05:51:07;;;;;;;93.57;87.15;;;;;;;;;;10240103;28;20049;-70
2022/09/29 05:56:13;;;;;;;93.07;87.35;;;;;;;;;;10224904;28;20085;-68
2022/09/29 06:01:11;;;;;;;100.30;93.97;;;;;;;;;;10237678;28;20392;-69
2022/09/29 06:06:09;;;;;;;104.78;98.57;;;;;;;;;;10233579;28;20045;-68
2022/09/29 06:11:10;;;;;;;102.97;96.53;;;;;;;;;;10236142;28;20530;-68
2022/09/29 06:16:07;;;;;;;107.78;101.47;;;;;;;;;;10233061;28;20067;-68
2022/09/29 06:21:04;;;;;;;109.35;102.72;;;;;;;;;;10242769;28;20664;-68
2022/09/29 06:26:03;;;;;;;113.97;106.88;;;;;;;;;;10232336;28;20042;-68
2022/09/29 06:31:00;;;;;;;117.25;110.13;;;;;;;;;;10228745;28;20041;-67
2022/09/29 06:41:12;;;;;;;119.53;112.13;;;;;;;;;;10232816;28;20526;-68
2022/09/29 06:46:08;;;;;;;117.50;110.20;;;;;;;;;;10233758;28;20049;-68
2022/09/29 06:51:07;;;;;;;120.88;113.75;;;;;;;;;;10235789;28;20046;-68
2022/09/29 06:56:06;;;;;;;119.55;112.25;;;;;;;;;;10234807;28;20137;-66
2022/09/29 07:01:04;;;;;;;127.55;119.60;;;;;;;;;;10243829;28;20423;-66
2022/09/29 07:06:04;;;;;;;125.55;117.72;;;;;;;;;;10236128;28;20037;-67
2022/09/29 07:11:15;;;;;;;129.27;121.15;;;;;;;;;;10239904;28;21024;-67
2022/09/29 07:16:13;;;;;;;132.98;125.15;;;;;;;;;;10241897;28;20068;-67
2022/09/29 07:21:10;;;;;;;135.27;127.15;;;;;;;;;;10247676;28;20099;-67
2022/09/29 07:26:07;;;;;;;137.85;129.30;;;;;;;;;;10241180;28;20045;-67
2022/09/29 07:31:04;;;;;;;125.35;118.10;;;;;;;;;;10243076;28;20444;-66
2022/09/29 07:36:10;;;;;;;116.13;109.18;;;;;;;;;;10241864;28;20075;-66
2022/09/29 07:41:12;;;;;;;103.90;97.60;;;;;;;;;;10244898;28;20047;-66
2022/09/29 07:46:08;;;;;;;82.70;77.47;;;;;;;;;;10228982;28;20050;-66
2022/09/29 07:51:06;;;;;;;72.90;68.10;;;;;;;;;;10233979;28;20500;-66
2022/09/29 07:56:04;;;;;;;66.20;61.70;;;;;;;;;;10233709;28;20057;-66
2022/09/29 08:01:03;;;;;;;62.45;58.28;;;;;;;;;;10229850;28;20042;-66
2022/09/29 08:05:59;;;;;;;59.88;55.70;;;;;;;;;;10230714;28;20045;-66
2022/09/29 08:11:05;;;;;;;49.28;45.60;;;;;;;;;;10242126;28;20055;-66
2022/09/29 08:16:03;;;;;;;43.65;40.55;;;;;;;;;;10227980;28;20069;-66
2022/09/29 08:20:59;;;;;;;44.58;40.95;;;;;;;;;;10236660;28;20068;-66
2022/09/29 08:26:01;;;;;;;41.58;38.08;;;;;;;;;;10228229;28;20128;-67
2022/09/29 08:31:19;;;;;;;40.08;36.95;;;;;;;;;;10237096;28;20454;-66
2022/09/29 08:36:16;;;;;;;37.70;34.70;;;;;;;;;;10242599;28;20499;-66
2022/09/29 08:41:32;;;;;;;36.08;32.80;;;;;;;;;;10228618;28;20046;-67
2022/09/29 08:46:48;;;;;;;33.13;30.50;;;;;;;;;;10237983;28;20422;-67
2022/09/29 08:51:54;;;;;;;32.13;28.95;;;;;;;;;;10227082;28;20056;-67
2022/09/29 08:56:54;;;;;;;31.00;28.47;;;;;;;;;;10243164;28;20561;-66
2022/09/29 09:01:56;;;;;;;30.67;28.15;;;;;;;;;;10233250;28;20053;-66
2022/09/29 09:07:11;;;;;;;29.63;27.02;;;;;;;;;;10237689;28;20503;-66
2022/09/29 09:12:23;;;;;;;30.23;27.45;;;;;;;;;;10242823;28;20049;-66
2022/09/29 09:17:43;;;;;;;27.00;24.65;;;;;;;;;;10240516;28;20072;-65
2022/09/29 09:22:59;;;;;;;26.77;24.58;;;;;;;;;;10230314;28;20058;-66
2022/09/29 09:28:04;;;;;;;28.08;25.88;;;;;;;;;;10239315;28;20049;-66
2022/09/29 09:33:03;;;;;;;27.15;25.05;;;;;;;;;;10239205;28;20041;-66
2022/09/29 09:38:01;;;;;;;27.95;25.42;;;;;;;;;;10247991;28;20521;-66
2022/09/29 09:43:07;;;;;;;25.52;23.42;;;;;;;;;;10239658;28;20043;-66
2022/09/29 09:48:27;;;;;;;25.75;23.50;;;;;;;;;;10244771;28;20446;-66
2022/09/29 09:53:47;;;;;;;26.23;23.85;;;;;;;;;;10242030;28;21315;-66
2022/09/29 09:59:02;;;;;;;26.98;24.70;;;;;;;;;;10235772;28;20545;-66
2022/09/29 10:03:58;;;;;;;25.92;23.67;;;;;;;;;;10241931;28;20046;-66
2022/09/29 10:08:55;;;;;;;25.67;23.38;;;;;;;;;;10237616;28;20049;-66
2022/09/29 10:13:57;;;;;;;26.55;24.23;;;;;;;;;;10238924;28;20400;-66
2022/09/29 10:18:53;;;;;;;27.30;25.00;;;;;;;;;;10236926;28;20538;-66
2022/09/29 10:23:50;;;;;;;25.45;23.25;;;;;;;;;;10243169;28;20053;-67
2022/09/29 10:28:49;;;;;;;25.15;22.98;;;;;;;;;;10239602;28;20045;-66
2022/09/29 10:33:49;;;;;;;24.30;22.30;;;;;;;;;;10243961;28;20053;-66
2022/09/29 10:38:46;;;;;;;21.63;19.80;;;;;;;;;;10237256;28;20065;-66
2022/09/29 10:43:43;;;;;;;23.92;21.92;;;;;;;;;;10240062;28;20060;-66
2022/09/29 10:48:39;;;;;;;22.70;20.83;;;;;;;;;;10237235;28;20053;-65
2022/09/29 10:53:39;;;;;;;24.02;22.13;;;;;;;;;;10248539;28;20043;-65
2022/09/29 10:58:38;;;;;;;24.33;21.92;;;;;;;;;;10243787;28;20580;-65
2022/09/29 11:04:05;;;;;;;25.08;22.88;;;;;;;;;;10237464;28;20049;-66
2022/09/29 11:09:03;;;;;;;21.98;20.08;;;;;;;;;;10239263;28;20049;-65
2022/09/29 11:14:00;;;;;;;22.17;20.40;;;;;;;;;;10240412;28;20044;-65
2022/09/29 11:19:03;;;;;;;20.05;18.48;;;;;;;;;;10244726;28;20056;-66
2022/09/29 11:23:59;;;;;;;;;;;;;;;;;;10240653;28;20053;-66
2022/09/29 11:29:13;;;;;;;21.50;19.60;;;;;;;;;;10244665;28;19931;-66
2022/09/29 11:34:21;;;;;;;20.73;18.95;;;;;;;;;;10226421;28;20061;-66
2022/09/29 11:39:27;;;;;;;23.88;21.98;;;;;;;;;;10235096;28;20515;-66
2022/09/29 11:44:23;;;;;;;24.48;22.48;;;;;;;;;;10244872;28;20050;-66
2022/09/29 11:49:35;;;;;;;23.13;21.23;;;;;;;;;;10243792;28;20048;-66
2022/09/29 11:55:01;;;;;;;26.05;23.85;;;;;;;;;;10227708;28;20060;-66
2022/09/29 12:00:13;;;;;;;25.90;23.58;;;;;;;;;;10177647;28;20049;-66
2022/09/29 12:05:22;;;;;;;28.85;26.25;;;;;;;;;;10237498;28;20067;-66
2022/09/29 12:10:22;;;;;;;24.42;22.42;;;;;;;;;;10222418;28;20050;-66
2022/09/29 12:15:32;;;;;;;23.98;21.98;;;;;;;;;;10228510;28;20052;-66
2022/09/29 12:20:35;;;;;;;22.57;20.70;;;;;;;;;;10231911;28;20422;-66
2022/09/29 12:25:35;;;;;;;25.88;23.58;;;;;;;;;;10233253;28;20046;-66
2022/09/29 12:30:58;;;;;;;23.15;21.27;;;;;;;;;;10230516;28;20104;-66
2022/09/29 12:36:02;;;;;;;26.77;24.57;;;;;;;;;;10232385;28;20047;-66
2022/09/29 12:41:01;;;;;;;30.45;27.67;;;;;;;;;;10231966;28;20042;-66
2022/09/29 12:46:10;;;;;;;38.05;35.03;;;;;;;;;;10237795;28;20061;-65
2022/09/29 12:51:12;;;;;;;32.17;29.90;;;;;;;;;;10227754;28;20053;-66
2022/09/29 12:56:14;;;;;;;36.00;33.57;;;;;;;;;;10232219;28;20048;-66
2022/09/29 13:01:29;;;;;;;36.05;33.80;;;;;;;;;;10230935;28;20088;-65
2022/09/29 13:06:40;;;;;;;42.47;39.75;;;;;;;;;;10234600;28;20499;-66
2022/09/29 13:11:51;;;;;;;33.08;30.88;;;;;;;;;;10228725;28;20498;-66
2022/09/29 13:17:00;;;;;;;33.58;31.45;;;;;;;;;;10226165;28;20040;-66
2022/09/29 13:22:15;;;;;;;32.47;30.23;;;;;;;;;;10234473;28;20462;-68
2022/09/29 13:27:28;;;;;;;32.75;30.55;;;;;;;;;;10243615;28;20041;-68
2022/09/29 13:32:25;;;;;;;28.05;26.17;;;;;;;;;;10230587;28;20038;-68
2022/09/29 13:37:23;;;;;;;28.52;26.63;;;;;;;;;;10231698;28;20045;-68
2022/09/29 13:42:38;;;;;;;27.05;25.15;;;;;;;;;;10223863;28;20064;-65
2022/09/29 13:47:34;;;;;;;32.55;30.27;;;;;;;;;;10224256;28;20515;-66
2022/09/29 13:52:37;;;;;;;33.47;31.23;;;;;;;;;;10230009;28;20038;-65
2022/09/29 13:57:33;;;;;;;37.03;34.63;;;;;;;;;;10227205;28;20159;-66
2022/09/29 14:02:35;;;;;;;47.67;44.58;;;;;;;;;;10228919;28;20049;-65
2022/09/29 14:07:40;;;;;;;65.25;61.40;;;;;;;;;;10235943;28;20095;-65
2022/09/29 14:12:37;;;;;;;70.55;66.45;;;;;;;;;;10224557;28;20041;-69
2022/09/29 14:17:41;;;;;;;81.75;77.07;;;;;;;;;;10227581;28;20037;-69
2022/09/29 14:22:37;;;;;;;85.43;80.38;;;;;;;;;;10229177;28;20052;-69
2022/09/29 14:27:57;;;;;;;83.93;79.22;;;;;;;;;;10225418;28;20056;-69
2022/09/29 14:32:54;;;;;;;97.45;91.95;;;;;;;;;;10228676;28;20499;-70
2022/09/29 14:37:57;;;;;;;94.43;89.20;;;;;;;;;;10224605;28;20399;-70
2022/09/29 14:43:02;;;;;;;91.10;86.03;;;;;;;;;;10216684;28;20056;-69
2022/09/29 14:53:30;;;;;;;99.28;93.68;;;;;;;;;;10238522;28;20539;-69
2022/09/29 14:58:49;;;;;;;102.53;96.38;;;;;;;;;;10235444;28;20037;-70
2022/09/29 15:03:50;;;;;;;95.85;90.55;;;;;;;;;;10235989;28;20046;-69
2022/09/29 15:08:56;;;;;;;96.72;91.07;;;;;;;;;;10239872;28;20056;-70
2022/09/29 15:13:54;;;;;;;95.15;89.85;;;;;;;;;;10232630;28;20125;-70
2022/09/29 15:18:59;;;;;;;96.10;90.70;;;;;;;;;;10235127;28;20045;-69
2022/09/29 15:23:59;;;;;;;103.22;97.43;;;;;;;;;;10238370;28;20048;-69
2022/09/29 15:28:55;;;;;;;94.25;88.88;;;;;;;;;;10235200;28;20037;-69
2022/09/29 15:33:52;;;;;;;91.00;86.07;;;;;;;;;;10238623;28;20053;-70
2022/09/29 15:39:11;;;;;;;83.32;78.57;;;;;;;;;;10238170;28;20048;-70
2022/09/29 15:44:07;;;;;;;89.40;84.32;;;;;;;;;;10234410;28;20048;-70
2022/09/29 15:49:04;;;;;;;80.68;76.07;;;;;;;;;;10234983;28;20047;-69
2022/09/29 15:54:03;;;;;;;78.32;73.93;;;;;;;;;;10233520;28;20049;-70
2022/09/29 15:59:00;;;;;;;74.78;70.38;;;;;;;;;;10239586;28;20038;-70
2022/09/29 16:04:01;;;;;;;81.30;76.20;;;;;;;;;;10237016;28;20048;-69
2022/09/29 16:09:00;;;;;;;84.25;79.50;;;;;;;;;;10233847;28;20041;-70
2022/09/29 16:14:01;;;;;;;88.32;83.32;;;;;;;;;;10232486;28;20044;-70
2022/09/29 16:18:59;;;;;;;94.47;89.28;;;;;;;;;;10234007;28;20049;-69
2022/09/29 16:24:04;;;;;;;98.47;93.13;;;;;;;;;;10229037;28;20037;-70
2022/09/29 16:29:11;;;;;;;110.28;104.15;;;;;;;;;;10227894;28;20140;-70
2022/09/29 16:34:19;;;;;;;107.18;101.22;;;;;;;;;;10229865;28;20046;-69
2022/09/29 16:39:17;;;;;;;105.90;100.00;;;;;;;;;;10235233;28;20407;-70
2022/09/29 16:44:23;;;;;;;107.53;101.38;;;;;;;;;;10244843;28;20049;-72
2022/09/29 16:49:21;;;;;;;109.85;103.80;;;;;;;;;;10231030;28;20057;-69
2022/09/29 16:54:28;;;;;;;113.80;107.45;;;;;;;;;;10231681;28;20055;-69
2022/09/29 16:59:24;;;;;;;101.75;96.00;;;;;;;;;;10229707;28;20160;-69
2022/09/29 17:04:21;;;;;;;109.20;103.38;;;;;;;;;;10230275;28;20055;-69
2022/09/29 17:09:19;;;;;;;107.75;101.82;;;;;;;;;;10234122;28;20045;-70
2022/09/29 17:14:17;;;;;;;110.80;104.55;;;;;;;;;;10240314;28;20045;-69
2022/09/29 17:19:14;;;;;;;118.75;111.60;;;;;;;;;;10232268;28;20075;-70
2022/09/29 17:24:10;;;;;;;113.80;107.20;;;;;;;;;;10242935;28;20044;-69
2022/09/29 17:29:06;;;;;;;115.50;108.93;;;;;;;;;;10229584;28;20720;-69
2022/09/29 17:34:06;;;;;;;113.05;106.40;;;;;;;;;;10230340;28;20045;-69
2022/09/29 17:39:03;;;;;;;115.88;109.22;;;;;;;;;;10228333;28;20080;-69
2022/09/29 17:44:03;;;;;;;113.90;106.88;;;;;;;;;;10231331;28;20046;-69
2022/09/29 17:49:00;;;;;;;118.75;111.88;;;;;;;;;;10230743;28;20047;-70
2022/09/29 17:53:56;;;;;;;122.50;115.40;;;;;;;;;;10224707;28;20068;-69
2022/09/29 17:58:53;;;;;;;117.18;110.20;;;;;;;;;;10233288;28;20396;-71
2022/09/29 18:03:50;;;;;;;127.68;120.18;;;;;;;;;;10225600;28;20052;-75
2022/09/29 18:08:49;;;;;;;129.73;122.07;;;;;;;;;;10221042;28;20083;-72
2022/09/29 18:13:50;;;;;;;132.23;124.30;;;;;;;;;;10228029;28;20684;-73
2022/09/29 18:18:47;;;;;;;133.32;125.53;;;;;;;;;;10233917;28;20060;-73
2022/09/29 18:23:44;;;;;;;130.13;122.32;;;;;;;;;;10223856;28;20048;-72
2022/09/29 18:28:41;;;;;;;134.35;126.47;;;;;;;;;;10228525;28;20411;-73
2022/09/29 18:33:37;;;;;;;138.38;130.23;;;;;;;;;;10232136;28;20037;-74
2022/09/29 18:38:33;;;;;;;136.57;128.38;;;;;;;;;;10238678;28;20085;-74
2022/09/29 18:43:29;;;;;;;130.70;122.38;;;;;;;;;;10230828;28;20045;-74
2022/09/29 18:48:25;;;;;;;134.20;125.75;;;;;;;;;;10227941;28;20045;-74
2022/09/29 18:53:22;;;;;;;130.52;122.70;;;;;;;;;;10233317;28;20049;-74
2022/09/29 18:58:19;;;;;;;135.23;127.32;;;;;;;;;;10232008;28;20125;-74
2022/09/29 19:03:17;;;;;;;135.35;127.43;;;;;;;;;;10237092;28;20050;-74
2022/09/29 19:08:13;;;;;;;135.98;127.95;;;;;;;;;;10232559;28;20056;-74
2022/09/29 19:13:14;;;;;;;143.30;134.77;;;;;;;;;;10238671;28;20089;-74
2022/09/29 19:18:22;;;;;;;138.38;130.27;;;;;;;;;;10241003;28;20143;-74
2022/09/29 19:23:19;;;;;;;142.48;134.05;;;;;;;;;;10228605;28;20042;-73
2022/09/29 19:28:16;;;;;;;144.25;135.63;;;;;;;;;;10231025;28;20053;-73
2022/09/29 19:33:14;;;;;;;135.00;126.97;;;;;;;;;;10229894;28;20064;-74
2022/09/29 19:38:10;;;;;;;139.20;131.07;;;;;;;;;;10232785;28;20046;-75
2022/09/29 19:43:07;;;;;;;138.68;130.50;;;;;;;;;;10241083;28;21020;-74
2022/09/29 19:48:04;;;;;;;140.25;132.13;;;;;;;;;;10218895;28;20064;-70
2022/09/29 19:53:00;;;;;;;150.50;142.60;;;;;;;;;;10224308;28;20038;-70
2022/09/29 19:57:58;;;;;;;148.18;140.27;;;;;;;;;;10236357;28;20047;-75
2022/09/29 20:02:54;;;;;;;141.98;134.68;;;;;;;;;;10233431;28;20042;-73
2022/09/29 20:07:51;;;;;;;140.43;132.93;;;;;;;;;;10239802;28;20620;-73
2022/09/29 20:12:47;;;;;;;138.75;131.70;;;;;;;;;;10230344;28;20041;-72
2022/09/29 20:17:43;;;;;;;136.98;130.27;;;;;;;;;;10243366;28;20041;-71
2022/09/29 20:22:39;;;;;;;115.07;109.47;;;;;;;;;;10230156;28;20053;-69
2022/09/29 20:27:36;;;;;;;116.47;110.88;;;;;;;;;;10232559;28;20049;-71
2022/09/29 20:32:32;;;;;;;114.07;108.43;;;;;;;;;;10233065;28;20052;-70
2022/09/29 20:37:29;;;;;;;114.85;109.10;;;;;;;;;;10231600;28;20462;-71
2022/09/29 20:42:25;;;;;;;111.43;106.03;;;;;;;;;;10235754;28;20057;-72
2022/09/29 20:47:23;;;;;;;108.95;103.55;;;;;;;;;;10239743;28;20048;-72
2022/09/29 20:52:20;;;;;;;105.70;100.40;;;;;;;;;;10238547;28;20124;-70
2022/09/29 20:57:16;;;;;;;112.35;106.70;;;;;;;;;;10232971;28;20056;-70
2022/09/29 21:02:13;;;;;;;110.53;105.03;;;;;;;;;;10230075;28;20064;-69
2022/09/29 21:07:34;;;;;;;123.95;117.85;;;;;;;;;;10234773;28;20473;-71
2022/09/29 21:12:26;;;;;;;120.95;115.05;;;;;;;;;;10230065;28;20045;-70
2022/09/29 21:17:22;;;;;;;124.97;118.70;;;;;;;;;;10223635;28;20084;-70
2022/09/29 21:22:18;;;;;;;123.82;117.70;;;;;;;;;;10232528;28;20522;-68
2022/09/29 21:27:20;;;;;;;128.55;122.20;;;;;;;;;;10223902;28;20045;-69
2022/09/29 21:32:16;;;;;;;127.95;121.70;;;;;;;;;;10223073;28;20049;-69
2022/09/29 21:37:12;;;;;;;126.32;120.13;;;;;;;;;;10225740;28;20045;-69
2022/09/29 21:42:09;;;;;;;124.25;118.15;;;;;;;;;;10225351;28;20045;-69
2022/09/29 21:47:05;;;;;;;118.25;112.40;;;;;;;;;;10234559;28;20548;-70
2022/09/29 21:52:01;;;;;;;114.30;108.65;;;;;;;;;;10227863;28;20052;-70
2022/09/29 21:56:57;;;;;;;110.88;105.47;;;;;;;;;;10238202;28;20041;-70
2022/09/29 22:01:54;;;;;;;117.20;111.40;;;;;;;;;;10230796;28;20053;-71
2022/09/29 22:06:50;;;;;;;121.75;115.88;;;;;;;;;;10247502;28;20397;-71
2022/09/29 22:11:48;;;;;;;118.25;112.32;;;;;;;;;;10239846;28;20071;-70
2022/09/29 22:16:45;;;;;;;117.45;111.72;;;;;;;;;;10228203;28;20037;-71
2022/09/29 22:21:41;;;;;;;119.15;113.35;;;;;;;;;;10232125;28;20041;-71
2022/09/29 22:26:38;;;;;;;124.30;118.20;;;;;;;;;;10237790;28;20046;-71
2022/09/29 22:31:35;;;;;;;122.15;115.95;;;;;;;;;;10252035;28;20044;-70
2022/09/29 22:36:32;;;;;;;122.40;116.32;;;;;;;;;;10248067;28;20041;-70
2022/09/29 22:41:28;;;;;;;121.68;115.78;;;;;;;;;;10241048;28;20045;-70
2022/09/29 22:46:26;;;;;;;125.13;119.03;;;;;;;;;;10239907;28;20045;-70
2022/09/29 22:51:22;;;;;;;123.30;117.15;;;;;;;;;;10228467;28;20499;-70
2022/09/29 22:56:19;;;;;;;118.43;112.32;;;;;;;;;;10237683;28;20163;-70
2022/09/29 23:01:16;;;;;;;122.80;116.63;;;;;;;;;;10231166;28;20049;-70
2022/09/29 23:06:13;;;;;;;131.95;125.32;;;;;;;;;;10230345;28;20046;-70
2022/09/29 23:11:16;;;;;;;128.85;122.35;;;;;;;;;;10234433;28;20045;-70
2022/09/29 23:16:13;;;;;;;126.63;120.18;;;;;;;;;;10233176;28;20049;-70
2022/09/29 23:21:10;;;;;;;128.80;122.10;;;;;;;;;;10230428;28;20571;-70
2022/09/29 23:26:07;;;;;;;125.47;119.15;;;;;;;;;;10223159;28;20053;-70
2022/09/29 23:31:04;;;;;;;126.43;119.93;;;;;;;;;;10231832;28;20057;-70
2022/09/29 23:36:11;;;;;;;127.93;121.47;;;;;;;;;;10228793;28;20053;-68
2022/09/29 23:41:09;;;;;;;128.57;121.88;;;;;;;;;;10229980;28;20649;-68
2022/09/29 23:46:05;;;;;;;128.35;121.80;;;;;;;;;;10240593;28;20064;-70
2022/09/29 23:51:02;;;;;;;131.77;125.13;;;;;;;;;;10226942;28;20083;-70
2022/09/29 23:55:58;;;;;;;128.02;121.43;;;;;;;;;;10236266;28;20041;-70
